KBDR/BDR METAR and TAF weather

Enter ICAO airport designator
Station Type Date Time Source
KBDR METAR 2021/05/12 04:52 UTC NOAA

KBDR 120452Z AUTO 28003KT 10SM CLR 10/M01 A3008 RMK AO2 SLP186 T01001006 401940083


Station Type Date Time Source
KBDR Decoded METAR 2021/05/12 04:52 UTC NOAA

SIKORSKY MEMORIAL AIRPORT, CT, United States (KBDR) 41-10N 073-08W 7M
May 12, 2021 - 12:52 AM EDT / 2021.05.12 0452 UTC
Wind: from the W (280 degrees) at 3 MPH (3 KT):0
Visibility: 10 mile(s):0
Sky conditions: clear
Temperature: 50.0 F (10.0 C)
Dew Point: 30.9 F (-0.6 C)
Relative Humidity: 47%
Pressure (altimeter): 30.08 in. Hg (1018 hPa)
ob: KBDR 120452Z AUTO 28003KT 10SM CLR 10/M01 A3008 RMK AO2 SLP186 T01001006 401940083
cycle: 5

Station Type Date Time Source
KBDR TAF 2021/05/12 03:42 UTC NOAA

TAF
AMD KBDR 120241Z 1203/1224 28005KT P6SM SCT080 SCT250
FM121300 31012G19KT P6SM SCT250
FM122200 31010KT P6SM SCT250

Example: see airport list